createdAt,value
2022-07-26T00:01:49.870Z,3.33
2022-07-26T00:04:22.386Z,3.03
2022-07-26T00:06:55.135Z,3.15
2022-07-26T00:09:27.544Z,3.70
2022-07-26T00:12:00.655Z,3.65
2022-07-26T00:14:33.077Z,3.53
2022-07-26T00:17:05.856Z,3.10
2022-07-26T00:19:38.224Z,2.55
2022-07-26T00:22:29.018Z,3.67
2022-07-26T00:25:02.669Z,2.47
2022-07-26T00:27:36.579Z,2.63
2022-07-26T00:30:10.758Z,3.65
2022-07-26T00:32:43.163Z,2.72
2022-07-26T00:35:15.748Z,3.63
2022-07-26T00:37:48.390Z,3.38
2022-07-26T00:40:20.818Z,3.78
2022-07-26T00:42:53.971Z,2.80
2022-07-26T00:45:26.372Z,4.03
2022-07-26T00:47:58.864Z,3.08
2022-07-26T00:50:31.291Z,3.72
2022-07-26T00:53:03.729Z,2.42
2022-07-26T00:55:36.158Z,2.15
2022-07-26T00:58:09.239Z,3.40
2022-07-26T01:00:41.619Z,3.50
2022-07-26T01:03:14.087Z,3.05
2022-07-26T01:05:47.616Z,3.83
2022-07-26T01:08:20.336Z,3.95
2022-07-26T01:10:53.027Z,2.50
2022-07-26T01:13:26.184Z,3.33
2022-07-26T01:15:58.591Z,2.92
2022-07-26T01:18:31.099Z,2.35
2022-07-26T01:21:13.688Z,3.08
2022-07-26T01:23:47.575Z,3.13
2022-07-26T01:26:20.098Z,3.78
2022-07-26T01:28:52.946Z,2.78
2022-07-26T01:31:26.055Z,3.00
2022-07-26T01:33:58.541Z,3.25
2022-07-26T01:36:30.948Z,3.33
2022-07-26T01:39:04.379Z,2.75
2022-07-26T01:41:38.024Z,1.80
2022-07-26T01:44:11.319Z,3.38
2022-07-26T01:46:44.030Z,3.55
2022-07-26T01:49:16.575Z,3.38
2022-07-26T01:51:48.991Z,2.63
2022-07-26T01:54:22.555Z,3.03
2022-07-26T01:56:56.991Z,3.13
2022-07-26T01:59:29.370Z,3.05
2022-07-26T02:02:05.654Z,2.38
2022-07-26T02:04:56.295Z,3.08
2022-07-26T02:07:30.409Z,3.03
2022-07-26T02:10:07.401Z,3.00
2022-07-26T02:12:40.224Z,2.42
2022-07-26T02:15:14.114Z,2.97
2022-07-26T02:17:46.487Z,3.42
2022-07-26T02:20:18.874Z,3.53
2022-07-26T02:22:51.266Z,3.55
2022-07-26T02:25:24.603Z,3.17
2022-07-26T02:27:57.012Z,2.92
2022-07-26T02:30:29.469Z,3.58
2022-07-26T02:33:01.979Z,3.20
2022-07-26T02:35:34.539Z,2.58
2022-07-26T02:38:09.025Z,3.17
2022-07-26T02:40:43.832Z,3.70
2022-07-26T02:43:16.417Z,2.88
2022-07-26T02:46:01.636Z,3.38
2022-07-26T02:48:34.729Z,3.72
2022-07-26T02:51:07.875Z,3.30
2022-07-26T02:53:40.259Z,2.75
2022-07-26T02:56:13.319Z,3.58
2022-07-26T02:58:45.962Z,3.30
2022-07-26T03:01:18.459Z,2.95
2022-07-26T03:03:51.388Z,2.58
2022-07-26T03:06:23.907Z,2.38
2022-07-26T03:08:56.474Z,2.85
2022-07-26T03:11:29.544Z,4.03
2022-07-26T03:14:02.171Z,3.22
2022-07-26T03:16:34.878Z,3.88
2022-07-26T03:19:07.262Z,3.35
2022-07-26T03:21:39.675Z,3.30
2022-07-26T03:24:12.170Z,3.60
2022-07-26T03:26:45.166Z,3.58
2022-07-26T03:29:17.674Z,3.13
2022-07-26T03:31:50.048Z,3.20
2022-07-26T03:34:22.876Z,3.60
2022-07-26T03:36:55.348Z,3.50
2022-07-26T03:39:27.744Z,3.65
2022-07-26T03:42:00.751Z,3.72
2022-07-26T03:44:33.283Z,3.78
2022-07-26T03:47:05.864Z,4.45
2022-07-26T03:49:38.346Z,3.10
2022-07-26T03:52:10.708Z,3.80
2022-07-26T03:54:43.136Z,4.45
2022-07-26T03:57:15.930Z,3.85
2022-07-26T03:59:48.351Z,4.10
2022-07-26T04:02:20.810Z,3.20
2022-07-26T04:04:53.213Z,3.17
2022-07-26T04:07:27.066Z,3.65
2022-07-26T04:09:59.550Z,3.83
2022-07-26T04:12:32.546Z,3.35
2022-07-26T04:15:06.324Z,3.40
2022-07-26T04:17:40.058Z,3.70
2022-07-26T04:20:12.522Z,4.05
2022-07-26T04:22:44.998Z,4.15
2022-07-26T04:25:18.144Z,4.47
2022-07-26T04:27:51.203Z,4.65
2022-07-26T04:30:23.670Z,4.15
2022-07-26T04:32:56.084Z,4.18
2022-07-26T04:35:28.530Z,5.13
2022-07-26T04:38:01.328Z,5.55
2022-07-26T04:40:33.782Z,4.03
2022-07-26T04:43:06.905Z,4.75
2022-07-26T04:45:41.802Z,4.88
2022-07-26T04:48:16.191Z,5.28
2022-07-26T04:50:48.650Z,4.70
2022-07-26T04:53:21.070Z,4.32
2022-07-26T04:55:53.483Z,5.88
2022-07-26T04:58:26.620Z,4.47
2022-07-26T05:01:14.669Z,5.10
2022-07-26T05:03:47.130Z,5.03
2022-07-26T05:06:19.542Z,5.00
2022-07-26T05:08:51.886Z,4.57
2022-07-26T05:11:24.664Z,5.10
2022-07-26T05:13:57.808Z,4.43
2022-07-26T05:16:30.402Z,3.70
2022-07-26T05:19:03.812Z,4.57
2022-07-26T05:21:36.219Z,3.78
2022-07-26T05:24:09.315Z,3.95
2022-07-26T05:26:42.079Z,4.43
2022-07-26T05:29:15.233Z,3.60
2022-07-26T05:31:47.639Z,3.90
2022-07-26T05:34:20.017Z,3.92
2022-07-26T05:36:52.481Z,4.47
2022-07-26T05:39:24.889Z,3.42
2022-07-26T05:41:57.316Z,4.50
2022-07-26T05:44:45.523Z,4.55
2022-07-26T05:47:18.762Z,3.97
2022-07-26T05:49:51.174Z,4.25
2022-07-26T05:52:23.793Z,3.97
2022-07-26T05:54:56.196Z,4.35
2022-07-26T05:57:28.654Z,3.92
2022-07-26T06:00:01.846Z,3.85
2022-07-26T06:02:44.532Z,4.93
2022-07-26T06:05:17.061Z,5.03
2022-07-26T06:07:49.627Z,4.03
2022-07-26T06:10:22.004Z,4.63
2022-07-26T06:12:54.392Z,4.38
2022-07-26T06:15:27.407Z,4.47
2022-07-26T06:17:59.785Z,4.82
2022-07-26T06:20:32.274Z,4.97
2022-07-26T06:23:04.884Z,4.00
2022-07-26T06:25:37.662Z,4.38
2022-07-26T06:28:10.877Z,4.38
2022-07-26T06:30:45.019Z,4.15
2022-07-26T06:33:17.449Z,4.13
2022-07-26T06:35:49.865Z,3.88
2022-07-26T06:38:22.308Z,5.10
2022-07-26T06:40:54.699Z,4.63
2022-07-26T06:43:27.159Z,4.35
2022-07-26T06:46:00.259Z,4.03
2022-07-26T06:48:32.909Z,4.80
2022-07-26T06:51:09.488Z,4.40
2022-07-26T06:53:41.930Z,4.63
2022-07-26T06:56:16.457Z,3.95
2022-07-26T06:58:48.891Z,5.32
2022-07-26T07:01:58.721Z,4.90
2022-07-26T07:04:14.548Z,4.43
2022-07-26T07:06:46.928Z,4.15
2022-07-26T07:09:22.335Z,4.20
2022-07-26T07:12:00.349Z,4.78
2022-07-26T07:14:38.429Z,4.35
2022-07-26T07:17:15.011Z,4.57
2022-07-26T07:19:50.915Z,4.63
2022-07-26T07:22:23.397Z,4.28
2022-07-26T07:24:55.846Z,4.97
2022-07-26T07:27:28.226Z,4.07
2022-07-26T07:30:00.585Z,5.53
2022-07-26T07:32:33.897Z,4.97
2022-07-26T07:35:12.828Z,4.78
2022-07-26T07:37:52.740Z,3.95
2022-07-26T07:40:26.612Z,4.68
2022-07-26T07:42:59.056Z,5.00
2022-07-26T07:45:31.449Z,4.70
2022-07-26T07:48:05.135Z,4.50
2022-07-26T07:50:37.529Z,4.63
2022-07-26T07:53:10.163Z,5.45
2022-07-26T07:55:46.340Z,5.85
2022-07-26T07:58:20.334Z,5.47
2022-07-26T08:00:52.917Z,4.63
2022-07-26T08:03:38.544Z,4.38
2022-07-26T08:06:11.516Z,4.20
2022-07-26T08:08:44.234Z,4.28
2022-07-26T08:11:16.635Z,4.18
2022-07-26T08:13:49.067Z,4.07
2022-07-26T08:16:21.503Z,4.53
2022-07-26T08:18:57.911Z,3.58
2022-07-26T08:21:30.723Z,4.50
2022-07-26T08:24:03.819Z,3.92
2022-07-26T08:26:36.161Z,4.80
2022-07-26T08:29:08.562Z,3.80
2022-07-26T08:31:40.984Z,4.00
2022-07-26T08:34:14.523Z,4.30
2022-07-26T08:37:14.280Z,3.85
2022-07-26T08:39:39.714Z,4.43
2022-07-26T08:42:15.779Z,3.92
2022-07-26T08:44:49.307Z,4.22
2022-07-26T08:47:40.036Z,3.85
2022-07-26T08:50:15.542Z,4.60
2022-07-26T08:52:49.072Z,3.90
2022-07-26T08:55:21.557Z,3.42
2022-07-26T08:57:53.948Z,3.53
2022-07-26T09:00:29.083Z,3.30
2022-07-26T09:03:02.462Z,3.47
2022-07-26T09:05:39.148Z,3.75
2022-07-26T09:08:24.442Z,3.50
2022-07-26T09:10:56.985Z,3.58
2022-07-26T09:13:49.615Z,4.10
2022-07-26T09:16:22.202Z,3.95
2022-07-26T09:18:55.776Z,4.22
2022-07-26T09:21:29.958Z,3.97
2022-07-26T09:24:02.672Z,3.90
2022-07-26T09:26:35.075Z,3.97
2022-07-26T09:29:10.941Z,3.33
2022-07-26T09:31:43.884Z,4.43
2022-07-26T09:34:24.989Z,4.47
2022-07-26T09:36:58.028Z,3.90
2022-07-26T09:39:34.022Z,4.25
2022-07-26T09:42:26.815Z,3.67
2022-07-26T09:45:01.402Z,3.05
2022-07-26T09:47:37.708Z,3.60
2022-07-26T09:50:12.849Z,3.92
2022-07-26T09:52:59.508Z,3.55
2022-07-26T09:55:40.992Z,4.15
2022-07-26T09:58:18.349Z,3.95
2022-07-26T10:00:50.960Z,4.10
2022-07-26T10:03:23.349Z,3.72
2022-07-26T10:05:57.117Z,4.28
2022-07-26T10:08:31.281Z,3.20
2022-07-26T10:11:07.022Z,3.80
2022-07-26T10:13:39.415Z,4.10
2022-07-26T10:16:30.129Z,3.40
2022-07-26T10:19:04.851Z,3.28
2022-07-26T10:21:37.396Z,3.95
2022-07-26T10:24:24.742Z,3.35
2022-07-26T10:26:57.151Z,3.20
2022-07-26T10:29:29.638Z,3.70
2022-07-26T10:32:19.482Z,3.78
2022-07-26T10:34:52.001Z,4.10
2022-07-26T10:37:29.040Z,2.88
2022-07-26T10:40:20.396Z,3.30
2022-07-26T10:42:52.820Z,3.05
2022-07-26T10:45:25.268Z,3.53
2022-07-26T10:48:14.571Z,2.92
2022-07-26T10:50:48.615Z,3.13
2022-07-26T10:53:23.057Z,3.78
2022-07-26T10:55:57.869Z,4.13
2022-07-26T10:58:42.168Z,2.60
2022-07-26T11:01:14.565Z,2.78
2022-07-26T11:03:47.215Z,3.28
2022-07-26T11:06:19.880Z,3.53
2022-07-26T11:08:52.432Z,3.50
2022-07-26T11:11:30.763Z,3.00
2022-07-26T11:14:07.684Z,3.95
2022-07-26T11:16:41.731Z,3.70
2022-07-26T11:19:16.016Z,3.55
2022-07-26T11:21:53.970Z,4.00
2022-07-26T11:24:26.908Z,3.33
2022-07-26T11:27:04.387Z,3.17
2022-07-26T11:29:41.199Z,3.60
2022-07-26T11:32:18.687Z,3.05
2022-07-26T11:35:00.221Z,3.40
2022-07-26T11:37:32.695Z,3.42
2022-07-26T11:40:06.165Z,4.13
2022-07-26T11:42:39.308Z,2.83
2022-07-26T11:45:14.755Z,2.20
2022-07-26T11:47:47.150Z,2.97
2022-07-26T11:50:23.045Z,3.33
2022-07-26T11:52:55.930Z,2.58
2022-07-26T11:55:29.557Z,2.95
2022-07-26T11:58:05.953Z,3.10
2022-07-26T12:00:38.446Z,3.08
2022-07-26T12:03:10.903Z,3.30
2022-07-26T12:05:43.508Z,2.95
2022-07-26T12:08:16.060Z,2.90
2022-07-26T12:10:53.757Z,3.28
2022-07-26T12:13:26.824Z,3.87
2022-07-26T12:15:59.363Z,3.45
2022-07-26T12:18:33.369Z,3.33
2022-07-26T12:21:08.613Z,3.47
2022-07-26T12:23:43.547Z,2.58
2022-07-26T12:26:23.728Z,3.97
2022-07-26T12:28:59.095Z,3.03
2022-07-26T12:31:33.405Z,3.55
2022-07-26T12:34:06.740Z,3.35
2022-07-26T12:36:39.131Z,3.83
2022-07-26T12:39:19.281Z,3.45
2022-07-26T12:41:53.388Z,3.03
2022-07-26T12:44:26.444Z,3.00
2022-07-26T12:46:58.817Z,3.30
2022-07-26T12:49:31.276Z,3.60
2022-07-26T12:55:41.145Z,3.75
2022-07-26T12:58:13.571Z,2.92
2022-07-26T13:00:46.661Z,3.47
2022-07-26T13:03:19.063Z,3.05
2022-07-26T13:05:51.532Z,3.53
2022-07-26T13:08:23.971Z,3.17
2022-07-26T13:10:59.985Z,3.85
2022-07-26T13:13:32.648Z,3.35
2022-07-26T13:16:11.575Z,3.13
2022-07-26T13:18:44.580Z,3.10
2022-07-26T13:21:17.083Z,3.33
2022-07-26T13:23:49.539Z,3.40
2022-07-26T13:26:21.942Z,3.70
2022-07-26T13:28:54.916Z,3.20
2022-07-26T13:31:28.182Z,3.88
2022-07-26T13:34:00.650Z,2.80
2022-07-26T13:36:33.392Z,3.20
2022-07-26T13:39:06.095Z,3.50
2022-07-26T13:41:38.573Z,3.25
2022-07-26T13:44:11.380Z,4.38
2022-07-26T13:46:46.683Z,3.38
2022-07-26T13:49:19.202Z,3.38
2022-07-26T13:51:57.489Z,4.20
2022-07-26T13:54:31.711Z,3.47
2022-07-26T13:57:07.086Z,3.38
2022-07-26T13:59:39.504Z,3.42
2022-07-26T14:02:12.817Z,4.25
2022-07-26T14:04:45.341Z,3.78
2022-07-26T14:07:17.767Z,3.30
2022-07-26T14:09:50.153Z,3.60
2022-07-26T14:12:22.620Z,3.50
2022-07-26T14:14:55.037Z,3.50
2022-07-26T14:17:28.124Z,3.95
2022-07-26T14:20:00.664Z,3.92
2022-07-26T14:22:33.067Z,3.60
2022-07-26T14:25:06.889Z,3.38
2022-07-26T14:27:39.296Z,3.35
2022-07-26T14:30:13.012Z,4.50
2022-07-26T14:32:46.688Z,3.33
2022-07-26T14:35:19.103Z,3.50
2022-07-26T14:37:52.099Z,3.20
2022-07-26T14:40:24.695Z,3.22
2022-07-26T14:42:57.496Z,6.25
2022-07-26T14:45:30.396Z,3.60
2022-07-26T14:48:03.983Z,3.33
2022-07-26T14:50:59.763Z,3.20
2022-07-26T14:53:28.844Z,3.78
2022-07-26T14:56:01.242Z,4.05
2022-07-26T14:58:33.672Z,3.65
2022-07-26T15:01:06.127Z,3.97
2022-07-26T15:03:39.933Z,3.55
2022-07-26T15:06:12.481Z,3.90
2022-07-26T15:08:44.871Z,4.10
2022-07-26T15:11:17.290Z,4.28
2022-07-26T15:13:49.795Z,3.45
2022-07-26T15:16:22.291Z,3.08
2022-07-26T15:18:55.388Z,3.53
2022-07-26T15:21:27.782Z,3.63
2022-07-26T15:24:00.940Z,4.03
2022-07-26T15:26:33.383Z,4.13
2022-07-26T15:29:05.873Z,3.42
2022-07-26T15:31:38.432Z,3.90
2022-07-26T15:34:11.914Z,3.80
2022-07-26T15:36:44.700Z,4.95
2022-07-26T15:39:18.069Z,3.97
2022-07-26T15:41:51.264Z,3.83
2022-07-26T15:44:25.772Z,3.67
2022-07-26T15:46:58.327Z,3.30
2022-07-26T15:49:31.631Z,4.03
2022-07-26T15:52:05.055Z,3.80
2022-07-26T15:54:37.693Z,3.85
2022-07-26T15:57:10.059Z,3.67
2022-07-26T15:59:42.480Z,4.40
2022-07-26T16:02:15.326Z,3.40
2022-07-26T16:04:48.501Z,4.18
2022-07-26T16:07:21.005Z,3.90
2022-07-26T16:09:53.464Z,3.97
2022-07-26T16:12:25.904Z,3.83
2022-07-26T16:14:58.299Z,4.43
2022-07-26T16:17:30.691Z,4.85
2022-07-26T16:20:06.176Z,4.28
2022-07-26T16:22:41.347Z,3.80
2022-07-26T16:25:15.383Z,4.68
2022-07-26T16:27:47.882Z,4.03
2022-07-26T16:30:20.831Z,3.25
2022-07-26T16:32:53.229Z,4.05
2022-07-26T16:35:26.341Z,3.58
2022-07-26T16:37:59.231Z,4.22
2022-07-26T16:40:31.679Z,3.80
2022-07-26T16:43:08.965Z,4.43
2022-07-26T16:45:44.503Z,4.05
2022-07-26T16:48:16.823Z,4.65
2022-07-26T16:50:49.926Z,4.80
2022-07-26T16:53:22.333Z,4.57
2022-07-26T16:55:54.717Z,4.30
2022-07-26T16:58:27.110Z,4.03
2022-07-26T17:00:59.604Z,4.70
2022-07-26T17:03:31.987Z,4.80
2022-07-26T17:06:06.864Z,4.10
2022-07-26T17:08:40.323Z,4.03
2022-07-26T17:11:12.773Z,3.92
2022-07-26T17:13:45.179Z,3.88
2022-07-26T17:16:21.477Z,4.10
2022-07-26T17:18:57.347Z,4.75
2022-07-26T17:21:30.388Z,3.55
2022-07-26T17:24:05.641Z,4.55
2022-07-26T17:26:38.239Z,4.72
2022-07-26T17:29:12.855Z,4.70
2022-07-26T17:31:45.639Z,5.47
2022-07-26T17:34:18.044Z,3.95
2022-07-26T17:36:58.220Z,4.07
2022-07-26T17:39:52.718Z,4.70
2022-07-26T17:42:24.214Z,4.72
2022-07-26T17:44:56.913Z,4.53
2022-07-26T17:47:30.552Z,4.30
2022-07-26T17:52:58.816Z,4.82
2022-07-26T17:55:31.199Z,4.25
2022-07-26T17:58:03.515Z,4.20
2022-07-26T18:00:36.089Z,3.67
2022-07-26T18:03:08.419Z,4.15
2022-07-26T18:05:41.540Z,4.57
2022-07-26T18:08:14.831Z,4.00
2022-07-26T18:10:51.022Z,4.10
2022-07-26T18:13:24.515Z,4.05
2022-07-26T18:15:57.306Z,5.03
2022-07-26T18:18:29.820Z,3.58
2022-07-26T18:21:02.190Z,4.22
2022-07-26T18:23:35.243Z,4.25
2022-07-26T18:26:07.679Z,4.28
2022-07-26T18:28:40.700Z,4.30
2022-07-26T18:31:15.764Z,4.22
2022-07-26T18:33:48.292Z,4.13
2022-07-26T18:36:20.663Z,3.83
2022-07-26T18:38:53.711Z,4.40
2022-07-26T18:41:27.861Z,3.70
2022-07-26T18:44:00.269Z,4.15
2022-07-26T18:46:33.680Z,3.92
2022-07-26T18:49:07.049Z,4.80
2022-07-26T18:51:40.304Z,4.78
2022-07-26T18:54:13.416Z,3.85
2022-07-26T18:56:45.785Z,4.10
2022-07-26T18:59:18.142Z,4.43
2022-07-26T19:01:50.592Z,5.05
2022-07-26T19:04:23.113Z,12.55
2022-07-26T19:06:56.054Z,9.80
2022-07-26T19:09:29.119Z,5.63
2022-07-26T19:12:01.492Z,5.60
2022-07-26T19:14:33.924Z,5.72
2022-07-26T19:17:09.238Z,5.57
2022-07-26T19:19:42.250Z,7.28
2022-07-26T19:22:14.643Z,6.25
2022-07-26T19:24:47.927Z,6.05
2022-07-26T19:27:20.331Z,6.18
2022-07-26T19:29:52.728Z,5.88
2022-07-26T19:32:27.194Z,5.72
2022-07-26T19:35:03.611Z,4.53
2022-07-26T19:37:36.295Z,4.90
2022-07-26T19:40:10.536Z,4.10
2022-07-26T19:42:43.077Z,4.00
2022-07-26T19:45:15.576Z,4.32
2022-07-26T19:47:48.000Z,4.10
2022-07-26T19:50:20.470Z,4.43
2022-07-26T19:52:52.942Z,4.50
2022-07-26T19:55:26.017Z,3.38
2022-07-26T19:57:58.383Z,3.50
2022-07-26T20:00:30.804Z,4.10
2022-07-26T20:03:03.731Z,4.05
2022-07-26T20:05:36.264Z,4.07
2022-07-26T20:08:08.662Z,3.22
2022-07-26T20:10:41.765Z,3.95
2022-07-26T20:13:14.197Z,4.05
2022-07-26T20:15:46.696Z,4.43
2022-07-26T20:18:21.351Z,4.68
2022-07-26T20:20:55.528Z,4.32
2022-07-26T20:23:28.210Z,3.92
2022-07-26T20:26:01.389Z,4.45
2022-07-26T20:28:33.859Z,4.68
2022-07-26T20:31:06.317Z,4.97
2022-07-26T20:33:38.755Z,4.93
2022-07-26T20:36:11.194Z,4.30
2022-07-26T20:38:48.232Z,3.78
2022-07-26T20:41:24.255Z,5.05
2022-07-26T20:43:57.532Z,4.15
2022-07-26T20:46:31.468Z,4.20
2022-07-26T20:49:04.029Z,3.92
2022-07-26T20:51:36.699Z,3.95
2022-07-26T20:54:09.587Z,4.03
2022-07-26T20:56:42.815Z,4.32
2022-07-26T20:59:15.605Z,4.05
2022-07-26T21:01:48.205Z,4.43
2022-07-26T21:04:20.707Z,3.45
2022-07-26T21:06:53.156Z,4.65
2022-07-26T21:09:26.387Z,3.63
2022-07-26T21:14:53.456Z,3.97
2022-07-26T21:17:34.558Z,4.30
2022-07-26T21:20:07.902Z,4.38
2022-07-26T21:22:40.312Z,4.60
2022-07-26T21:25:12.945Z,3.60
2022-07-26T21:27:46.044Z,3.42
2022-07-26T21:30:18.424Z,4.10
2022-07-26T21:32:50.806Z,3.70
2022-07-26T21:35:23.219Z,4.30
2022-07-26T21:37:55.616Z,3.80
2022-07-26T21:40:28.118Z,4.10
2022-07-26T21:43:01.324Z,3.60
2022-07-26T21:45:33.769Z,4.10
2022-07-26T21:48:06.776Z,4.47
2022-07-26T21:50:39.140Z,4.32
2022-07-26T21:53:11.500Z,4.25
2022-07-26T21:55:43.907Z,4.32
2022-07-26T21:58:16.947Z,3.53
2022-07-26T22:00:49.500Z,3.95
2022-07-26T22:03:21.943Z,4.30
2022-07-26T22:05:54.343Z,3.90
2022-07-26T22:08:27.031Z,4.07
2022-07-26T22:10:59.490Z,4.38
2022-07-26T22:13:32.561Z,4.15
2022-07-26T22:16:05.618Z,3.63
2022-07-26T22:18:38.048Z,3.60
2022-07-26T22:21:10.440Z,3.63
2022-07-26T22:23:42.910Z,3.88
2022-07-26T22:26:15.552Z,3.65
2022-07-26T22:28:48.604Z,3.25
2022-07-26T22:31:21.015Z,3.10
2022-07-26T22:33:53.470Z,3.17
2022-07-26T22:36:25.851Z,3.35
2022-07-26T22:38:58.231Z,3.03
2022-07-26T22:41:32.606Z,3.75
2022-07-26T22:44:07.005Z,3.00
2022-07-26T22:46:39.409Z,3.38
2022-07-26T22:49:12.383Z,3.47
2022-07-26T22:51:47.576Z,3.47
2022-07-26T22:54:19.975Z,3.67
2022-07-26T22:56:52.420Z,3.33
2022-07-26T22:59:25.499Z,3.80
2022-07-26T23:01:57.887Z,3.05
2022-07-26T23:04:30.292Z,3.47
2022-07-26T23:07:03.423Z,3.15
2022-07-26T23:09:36.982Z,2.97
2022-07-26T23:12:09.872Z,3.83
2022-07-26T23:14:42.913Z,3.55
2022-07-26T23:17:15.467Z,3.40
2022-07-26T23:19:47.953Z,2.70
2022-07-26T23:22:20.432Z,3.10
2022-07-26T23:24:52.830Z,3.45
2022-07-26T23:27:25.274Z,3.17
2022-07-26T23:29:58.366Z,2.97
2022-07-26T23:32:30.764Z,3.10
2022-07-26T23:35:03.637Z,3.60
2022-07-26T23:37:36.027Z,3.47
2022-07-26T23:40:10.060Z,2.85
2022-07-26T23:42:42.401Z,2.97
2022-07-26T23:45:15.436Z,2.72
2022-07-26T23:47:47.931Z,2.72
2022-07-26T23:50:20.409Z,3.53
2022-07-26T23:52:52.804Z,3.55
2022-07-26T23:55:25.212Z,3.35
2022-07-26T23:57:57.644Z,3.53
